createdAt,value
2023-05-05T00:01:20.724Z,4.73
2023-05-05T00:03:47.395Z,4.70
2023-05-05T00:06:14.624Z,5.27
2023-05-05T00:08:41.843Z,4.57
2023-05-05T00:11:08.458Z,4.70
2023-05-05T00:13:35.267Z,5.00
2023-05-05T00:16:01.868Z,4.93
2023-05-05T00:18:29.444Z,4.83
2023-05-05T00:20:56.052Z,4.90
2023-05-05T00:23:22.672Z,4.13
2023-05-05T00:25:49.240Z,4.50
2023-05-05T00:28:15.925Z,4.23
2023-05-05T00:30:42.851Z,4.10
2023-05-05T00:33:09.458Z,3.63
2023-05-05T00:35:36.051Z,3.30
2023-05-05T00:38:02.978Z,4.03
2023-05-05T00:40:29.730Z,3.50
2023-05-05T00:42:56.336Z,3.50
2023-05-05T00:45:22.978Z,3.23
2023-05-05T00:47:53.517Z,3.23
2023-05-05T00:50:25.695Z,3.20
2023-05-05T00:53:01.648Z,3.30
2023-05-05T00:55:33.099Z,3.30
2023-05-05T00:58:01.094Z,3.97
2023-05-05T01:00:28.688Z,4.13
2023-05-05T01:02:55.702Z,3.77
2023-05-05T01:05:24.091Z,4.00
2023-05-05T01:07:56.892Z,4.37
2023-05-05T01:10:41.056Z,4.97
2023-05-05T01:13:32.356Z,5.20
2023-05-05T01:16:12.309Z,4.63
2023-05-05T01:18:53.002Z,4.63
2023-05-05T01:21:33.539Z,4.70
2023-05-05T01:24:39.405Z,3.73
2023-05-05T01:27:27.586Z,3.50
2023-05-05T01:30:40.893Z,4.07
2023-05-05T01:33:11.031Z,3.63
2023-05-05T01:35:44.632Z,4.37
2023-05-05T01:38:16.098Z,5.10
2023-05-05T01:40:48.201Z,4.83
2023-05-05T01:43:17.607Z,5.50
2023-05-05T01:45:45.643Z,5.20
2023-05-05T01:48:15.189Z,5.37
2023-05-05T01:50:42.682Z,5.37
2023-05-05T01:53:10.395Z,5.03
2023-05-05T01:55:39.051Z,4.93
2023-05-05T01:58:07.617Z,4.87
2023-05-05T02:00:34.938Z,4.00
2023-05-05T02:03:04.366Z,5.30
2023-05-05T02:05:33.112Z,5.10
2023-05-05T02:08:00.952Z,5.03
2023-05-05T02:10:29.002Z,4.87
2023-05-05T02:12:56.674Z,4.40
2023-05-05T02:15:24.546Z,4.73
2023-05-05T02:17:52.857Z,4.63
2023-05-05T02:20:20.338Z,4.40
2023-05-05T02:22:47.071Z,4.13
2023-05-05T02:25:13.826Z,3.77
2023-05-05T02:27:43.544Z,3.53
2023-05-05T02:30:12.868Z,3.50
2023-05-05T02:32:53.965Z,3.70
2023-05-05T02:35:24.180Z,3.30
2023-05-05T02:38:02.790Z,3.47
2023-05-05T02:40:32.873Z,3.37
2023-05-05T02:43:04.603Z,3.60
2023-05-05T02:45:31.336Z,3.53
2023-05-05T02:48:01.565Z,3.50
2023-05-05T02:50:28.204Z,3.50
2023-05-05T02:52:54.775Z,3.67
2023-05-05T02:55:21.464Z,3.63
2023-05-05T02:57:56.249Z,4.00
2023-05-05T03:00:38.413Z,3.87
2023-05-05T03:03:14.183Z,3.70
2023-05-05T03:05:51.423Z,3.60
2023-05-05T03:08:26.745Z,3.40
2023-05-05T03:11:04.476Z,3.27
2023-05-05T03:13:34.346Z,3.80
2023-05-05T03:16:06.501Z,4.00
2023-05-05T03:18:34.417Z,3.30
2023-05-05T03:21:08.358Z,3.97
2023-05-05T03:23:35.757Z,3.90
2023-05-05T03:26:02.415Z,3.40
2023-05-05T03:28:29.522Z,3.30
2023-05-05T03:30:56.426Z,3.37
2023-05-05T03:33:23.036Z,3.50
2023-05-05T03:35:49.668Z,3.40
2023-05-05T03:38:16.281Z,3.00
2023-05-05T03:40:44.623Z,3.60
2023-05-05T03:43:11.739Z,3.23
2023-05-05T03:45:38.627Z,3.53
2023-05-05T03:48:05.998Z,3.07
2023-05-05T03:50:32.595Z,3.90
2023-05-05T03:52:59.197Z,3.60
2023-05-05T03:55:25.819Z,3.03
2023-05-05T03:57:52.451Z,4.33
2023-05-05T04:00:19.386Z,3.53
2023-05-05T04:02:46.083Z,3.20
2023-05-05T04:05:12.765Z,3.80
2023-05-05T04:07:39.344Z,3.53
2023-05-05T04:10:07.024Z,3.23
2023-05-05T04:12:33.900Z,3.40
2023-05-05T04:15:00.545Z,3.60
2023-05-05T04:17:27.134Z,3.27
2023-05-05T04:19:53.919Z,3.67
2023-05-05T04:22:20.515Z,3.60
2023-05-05T04:24:47.479Z,3.67
2023-05-05T04:27:14.035Z,3.50
2023-05-05T04:29:40.681Z,3.30
2023-05-05T04:32:07.412Z,3.37
2023-05-05T04:34:33.984Z,3.70
2023-05-05T04:37:00.567Z,3.40
2023-05-05T04:39:27.151Z,3.40
2023-05-05T04:41:54.664Z,3.40
2023-05-05T04:44:21.306Z,3.07
2023-05-05T04:46:47.945Z,3.50
2023-05-05T04:49:14.523Z,3.70
2023-05-05T04:51:42.318Z,3.53
2023-05-05T04:54:08.992Z,3.80
2023-05-05T04:56:35.799Z,3.60
2023-05-05T04:59:02.420Z,3.43
2023-05-05T05:01:29.075Z,3.80
2023-05-05T05:03:55.923Z,3.70
2023-05-05T05:06:22.840Z,3.87
2023-05-05T05:08:49.466Z,3.40
2023-05-05T05:11:16.104Z,3.63
2023-05-05T05:13:42.919Z,4.30
2023-05-05T05:16:09.506Z,4.27
2023-05-05T05:18:36.187Z,4.17
2023-05-05T05:21:03.437Z,4.00
2023-05-05T05:23:30.080Z,3.63
2023-05-05T05:26:01.670Z,3.80
2023-05-05T05:28:28.413Z,3.57
2023-05-05T05:30:55.045Z,3.83
2023-05-05T05:33:21.854Z,3.90
2023-05-05T05:35:48.516Z,4.27
2023-05-05T05:38:15.167Z,4.27
2023-05-05T05:40:42.105Z,3.97
2023-05-05T05:43:08.672Z,4.00
2023-05-05T05:45:35.278Z,4.07
2023-05-05T05:48:02.160Z,4.10
2023-05-05T05:50:28.844Z,3.77
2023-05-05T05:52:55.843Z,3.80
2023-05-05T05:55:22.449Z,4.20
2023-05-05T05:57:49.069Z,4.17
2023-05-05T06:00:16.015Z,4.00
2023-05-05T06:02:42.729Z,4.10
2023-05-05T06:05:09.655Z,4.30
2023-05-05T06:07:38.060Z,3.50
2023-05-05T06:10:22.724Z,4.00
2023-05-05T06:12:52.284Z,4.00
2023-05-05T06:15:18.958Z,4.27
2023-05-05T06:17:45.628Z,4.10
2023-05-05T06:20:13.864Z,3.60
2023-05-05T06:22:40.574Z,4.23
2023-05-05T06:25:07.487Z,4.17
2023-05-05T06:27:34.116Z,4.23
2023-05-05T06:30:00.685Z,4.10
2023-05-05T06:32:27.275Z,3.60
2023-05-05T06:34:53.851Z,4.10
2023-05-05T06:37:20.478Z,4.07
2023-05-05T06:39:47.207Z,4.30
2023-05-05T06:42:13.789Z,4.10
2023-05-05T06:44:40.475Z,4.53
2023-05-05T06:47:07.181Z,4.13
2023-05-05T06:49:33.837Z,4.13
2023-05-05T06:52:00.406Z,4.30
2023-05-05T06:54:27.018Z,4.80
2023-05-05T06:56:53.667Z,3.60
2023-05-05T06:59:20.267Z,3.80
2023-05-05T07:01:46.925Z,3.90
2023-05-05T07:04:13.576Z,4.37
2023-05-05T07:06:40.180Z,4.60
2023-05-05T07:09:06.777Z,4.43
2023-05-05T07:11:33.429Z,4.20
2023-05-05T07:14:00.432Z,3.60
2023-05-05T07:16:27.423Z,4.13
2023-05-05T07:18:54.177Z,4.22
2023-05-05T07:21:20.905Z,4.30
2023-05-05T07:23:47.718Z,4.15
2023-05-05T07:26:15.110Z,3.90
2023-05-05T07:28:43.099Z,3.97
2023-05-05T07:31:09.784Z,3.90
2023-05-05T07:33:37.517Z,4.17
2023-05-05T07:36:04.486Z,4.23
2023-05-05T07:38:31.152Z,4.35
2023-05-05T07:40:57.724Z,4.43
2023-05-05T07:43:24.342Z,4.03
2023-05-05T07:45:50.935Z,4.35
2023-05-05T07:48:17.584Z,4.13
2023-05-05T07:50:44.124Z,4.72
2023-05-05T07:53:14.848Z,4.43
2023-05-05T07:55:42.196Z,4.30
2023-05-05T07:58:10.734Z,4.53
2023-05-05T08:00:37.695Z,4.65
2023-05-05T08:03:04.852Z,4.50
2023-05-05T08:05:31.578Z,4.35
2023-05-05T08:07:58.208Z,4.15
2023-05-05T08:10:24.895Z,4.68
2023-05-05T08:12:51.680Z,4.75
2023-05-05T08:15:18.342Z,4.28
2023-05-05T08:17:47.346Z,3.80
2023-05-05T08:20:14.556Z,4.30
2023-05-05T08:22:42.277Z,4.78
2023-05-05T08:25:11.062Z,5.30
2023-05-05T08:27:38.882Z,3.75
2023-05-05T08:30:06.526Z,4.30
2023-05-05T08:32:33.154Z,5.00
2023-05-05T08:35:03.177Z,4.50
2023-05-05T08:37:29.834Z,4.50
2023-05-05T08:39:57.792Z,4.60
2023-05-05T08:42:36.229Z,4.65
2023-05-05T08:45:04.811Z,5.53
2023-05-05T08:47:32.257Z,4.30
2023-05-05T08:49:59.408Z,4.50
2023-05-05T08:52:29.319Z,4.65
2023-05-05T08:55:05.933Z,4.82
2023-05-05T08:57:39.684Z,4.57
2023-05-05T09:00:09.803Z,4.53
2023-05-05T09:02:37.155Z,5.03
2023-05-05T09:05:06.208Z,4.90
2023-05-05T09:07:34.623Z,4.53
2023-05-05T09:10:04.671Z,4.85
2023-05-05T09:12:31.839Z,4.70
2023-05-05T09:14:59.380Z,4.97
2023-05-05T09:17:26.887Z,4.60
2023-05-05T09:20:09.396Z,4.93
2023-05-05T09:22:41.405Z,4.60
2023-05-05T09:25:13.417Z,3.92
2023-05-05T09:27:46.462Z,4.32
2023-05-05T09:30:24.647Z,4.18
2023-05-05T09:32:53.220Z,4.32
2023-05-05T09:35:21.254Z,4.30
2023-05-05T09:37:48.320Z,4.30
2023-05-05T09:40:18.493Z,4.68
2023-05-05T09:42:45.267Z,4.55
2023-05-05T09:45:17.963Z,4.70
2023-05-05T09:47:46.356Z,4.28
2023-05-05T09:50:18.528Z,4.57
2023-05-05T09:52:56.038Z,5.18
2023-05-05T09:55:24.019Z,4.25
2023-05-05T09:57:51.010Z,4.22
2023-05-05T10:00:17.898Z,4.13
2023-05-05T10:02:44.581Z,3.95
2023-05-05T10:05:18.279Z,3.88
2023-05-05T10:07:46.788Z,3.88
2023-05-05T10:10:16.234Z,4.03
2023-05-05T10:12:43.305Z,3.78
2023-05-05T10:15:11.578Z,4.35
2023-05-05T10:18:05.142Z,4.88
2023-05-05T10:20:38.485Z,4.20
2023-05-05T10:23:07.916Z,4.20
2023-05-05T10:25:42.069Z,3.78
2023-05-05T10:28:16.477Z,4.25
2023-05-05T10:30:45.945Z,3.78
2023-05-05T10:33:30.838Z,4.63
2023-05-05T10:36:02.038Z,3.97
2023-05-05T10:38:31.039Z,3.63
2023-05-05T10:41:00.104Z,3.80
2023-05-05T10:43:28.066Z,3.50
2023-05-05T10:45:55.609Z,3.50
2023-05-05T10:48:32.275Z,3.65
2023-05-05T10:51:11.290Z,4.00
2023-05-05T10:54:00.272Z,4.10
2023-05-05T10:56:31.394Z,3.85
2023-05-05T10:59:00.154Z,3.55
2023-05-05T11:01:35.197Z,3.60
2023-05-05T11:04:22.420Z,3.80
2023-05-05T11:07:08.120Z,3.67
2023-05-05T11:09:42.553Z,3.80
2023-05-05T11:12:09.199Z,3.83
2023-05-05T11:14:35.806Z,3.35
2023-05-05T11:17:02.450Z,3.90
2023-05-05T11:19:44.955Z,3.80
2023-05-05T11:22:11.722Z,3.85
2023-05-05T11:24:39.791Z,3.88
2023-05-05T11:27:06.591Z,3.92
2023-05-05T11:30:04.427Z,3.83
2023-05-05T11:32:31.134Z,3.92
2023-05-05T11:34:57.946Z,3.65
2023-05-05T11:37:26.942Z,3.90
2023-05-05T11:40:07.601Z,3.80
2023-05-05T11:42:34.724Z,3.58
2023-05-05T11:45:02.071Z,3.60
2023-05-05T11:47:30.046Z,3.47
2023-05-05T11:49:56.750Z,3.70
2023-05-05T11:52:25.586Z,3.78
2023-05-05T11:54:52.261Z,3.50
2023-05-05T11:57:21.734Z,3.40
2023-05-05T12:00:03.210Z,3.22
2023-05-05T12:02:31.333Z,3.53
2023-05-05T12:04:59.535Z,3.45
2023-05-05T12:07:30.932Z,3.00
2023-05-05T12:09:57.921Z,3.15
2023-05-05T12:12:38.514Z,3.42
2023-05-05T12:15:06.354Z,3.53
2023-05-05T12:17:38.770Z,3.55
2023-05-05T12:20:06.760Z,3.08
2023-05-05T12:22:33.909Z,3.38
2023-05-05T12:25:05.633Z,3.30
2023-05-05T12:27:32.403Z,2.85
2023-05-05T12:30:15.662Z,3.03
2023-05-05T12:32:43.101Z,3.00
2023-05-05T12:35:10.845Z,3.30
2023-05-05T12:37:38.577Z,2.85
2023-05-05T12:40:06.498Z,3.10
2023-05-05T12:42:39.171Z,3.15
2023-05-05T12:45:08.410Z,3.05
2023-05-05T12:47:36.765Z,2.97
2023-05-05T12:50:04.055Z,3.00
2023-05-05T12:52:44.875Z,2.78
2023-05-05T12:55:12.074Z,3.10
2023-05-05T12:57:39.523Z,3.25
2023-05-05T13:00:18.045Z,2.63
2023-05-05T13:02:44.756Z,3.42
2023-05-05T13:05:11.996Z,2.80
2023-05-05T13:07:50.786Z,3.10
2023-05-05T13:10:17.698Z,3.08
2023-05-05T13:12:44.337Z,3.05
2023-05-05T13:15:11.579Z,3.03
2023-05-05T13:17:38.228Z,3.10
2023-05-05T13:20:06.714Z,3.40
2023-05-05T13:22:33.336Z,3.25
2023-05-05T13:24:59.908Z,3.15
2023-05-05T13:27:27.046Z,3.33
2023-05-05T13:29:53.768Z,3.25
2023-05-05T13:32:20.321Z,3.00
2023-05-05T13:34:46.890Z,2.78
2023-05-05T13:37:13.452Z,3.20
2023-05-05T13:39:40.036Z,3.05
2023-05-05T13:42:06.697Z,3.35
2023-05-05T13:44:33.264Z,3.13
2023-05-05T13:46:59.884Z,2.72
2023-05-05T13:49:26.850Z,3.28
2023-05-05T13:51:53.430Z,3.40
2023-05-05T13:54:19.971Z,2.95
2023-05-05T13:56:46.569Z,3.38
2023-05-05T13:59:13.186Z,2.90
2023-05-05T14:01:39.760Z,2.92
2023-05-05T14:04:06.437Z,3.00
2023-05-05T14:06:33.593Z,2.80
2023-05-05T14:09:00.272Z,3.28
2023-05-05T14:11:26.922Z,2.90
2023-05-05T14:13:54.068Z,3.40
2023-05-05T14:16:20.681Z,3.30
2023-05-05T14:18:47.260Z,3.30
2023-05-05T14:21:13.798Z,2.83
2023-05-05T14:23:40.907Z,3.22
2023-05-05T14:26:08.931Z,3.20
2023-05-05T14:28:35.914Z,3.55
2023-05-05T14:31:03.537Z,2.90
2023-05-05T14:33:30.337Z,2.83
2023-05-05T14:35:57.012Z,2.90
2023-05-05T14:38:23.681Z,2.90
2023-05-05T14:40:50.453Z,2.90
2023-05-05T14:43:17.031Z,2.75
2023-05-05T14:45:44.233Z,2.70
2023-05-05T14:48:11.115Z,2.70
2023-05-05T14:50:38.628Z,3.03
2023-05-05T14:53:05.576Z,3.47
2023-05-05T14:55:32.856Z,2.72
2023-05-05T14:57:59.456Z,3.10
2023-05-05T15:00:26.897Z,3.17
2023-05-05T15:02:53.698Z,3.22
2023-05-05T15:05:20.404Z,3.10
2023-05-05T15:07:57.815Z,2.97
2023-05-05T15:10:24.786Z,2.78
2023-05-05T15:12:51.493Z,2.67
2023-05-05T15:15:18.453Z,2.80
2023-05-05T15:17:45.128Z,3.33
2023-05-05T15:20:12.037Z,3.00
2023-05-05T15:22:38.672Z,3.55
2023-05-05T15:25:09.463Z,3.13
2023-05-05T15:27:37.939Z,3.35
2023-05-05T15:30:05.945Z,3.05
2023-05-05T15:32:33.125Z,2.92
2023-05-05T15:34:59.698Z,3.38
2023-05-05T15:37:28.282Z,3.10
2023-05-05T15:39:55.689Z,3.03
2023-05-05T15:42:22.709Z,3.13
2023-05-05T15:44:49.276Z,3.10
2023-05-05T15:47:15.992Z,3.20
2023-05-05T15:49:42.685Z,3.42
2023-05-05T15:52:09.388Z,3.00
2023-05-05T15:54:36.030Z,2.80
2023-05-05T15:57:06.026Z,3.30
2023-05-05T15:59:32.610Z,3.47
2023-05-05T16:01:59.401Z,3.20
2023-05-05T16:04:26.011Z,2.72
2023-05-05T16:06:53.061Z,3.00
2023-05-05T16:09:19.758Z,3.40
2023-05-05T16:11:47.153Z,3.15
2023-05-05T16:14:13.737Z,3.28
2023-05-05T16:16:40.799Z,3.22
2023-05-05T16:19:07.358Z,3.00
2023-05-05T16:21:33.908Z,3.10
2023-05-05T16:24:00.536Z,3.40
2023-05-05T16:26:27.151Z,3.15
2023-05-05T16:28:53.804Z,3.20
2023-05-05T16:31:20.504Z,3.38
2023-05-05T16:33:47.162Z,3.20
2023-05-05T16:36:13.775Z,3.40
2023-05-05T16:38:41.093Z,3.50
2023-05-05T16:41:08.294Z,3.10
2023-05-05T16:43:36.993Z,3.38
2023-05-05T16:46:03.912Z,3.20
2023-05-05T16:48:30.605Z,3.70
2023-05-05T16:50:57.765Z,3.40
2023-05-05T16:53:24.922Z,3.42
2023-05-05T16:55:52.535Z,3.55
2023-05-05T16:58:20.637Z,3.40
2023-05-05T17:00:48.976Z,3.80
2023-05-05T17:03:16.949Z,3.72
2023-05-05T17:05:44.242Z,4.00
2023-05-05T17:08:14.220Z,3.50
2023-05-05T17:10:45.230Z,3.78
2023-05-05T17:13:13.146Z,3.90
2023-05-05T17:15:40.468Z,3.72
2023-05-05T17:18:08.265Z,3.85
2023-05-05T17:20:36.258Z,3.90
2023-05-05T17:23:03.185Z,3.65
2023-05-05T17:25:29.894Z,3.40
2023-05-05T17:27:56.522Z,3.78
2023-05-05T17:30:23.194Z,3.60
2023-05-05T17:32:49.856Z,3.60
2023-05-05T17:35:16.563Z,3.90
2023-05-05T17:37:43.184Z,4.18
2023-05-05T17:40:10.051Z,4.00
2023-05-05T17:42:36.664Z,3.60
2023-05-05T17:45:03.881Z,3.50
2023-05-05T17:47:30.639Z,3.70
2023-05-05T17:49:57.475Z,3.60
2023-05-05T17:52:24.772Z,4.13
2023-05-05T17:54:51.546Z,4.28
2023-05-05T17:57:20.850Z,3.95
2023-05-05T17:59:51.851Z,4.22
2023-05-05T18:02:18.980Z,4.07
2023-05-05T18:04:46.431Z,4.20
2023-05-05T18:07:14.533Z,4.88
2023-05-05T18:09:41.779Z,4.10
2023-05-05T18:12:08.346Z,4.38
2023-05-05T18:14:35.001Z,4.20
2023-05-05T18:17:01.629Z,4.50
2023-05-05T18:19:28.218Z,3.70
2023-05-05T18:21:54.774Z,4.22
2023-05-05T18:24:21.405Z,5.15
2023-05-05T18:26:52.405Z,4.35
2023-05-05T18:29:21.429Z,4.63
2023-05-05T18:31:51.433Z,4.50
2023-05-05T18:34:19.155Z,4.80
2023-05-05T18:36:46.393Z,4.18
2023-05-05T18:39:13.679Z,3.97
2023-05-05T18:41:40.897Z,4.55
2023-05-05T18:44:07.837Z,4.80
2023-05-05T18:46:34.732Z,4.38
2023-05-05T18:49:01.556Z,4.47
2023-05-05T18:51:28.560Z,4.82
2023-05-05T18:53:55.467Z,4.65
2023-05-05T18:56:22.019Z,4.10
2023-05-05T18:58:48.961Z,4.65
2023-05-05T19:01:16.302Z,4.13
2023-05-05T19:03:47.685Z,4.03
2023-05-05T19:06:15.018Z,4.43
2023-05-05T19:08:42.612Z,4.20
2023-05-05T19:11:09.479Z,4.32
2023-05-05T19:13:36.125Z,4.07
2023-05-05T19:16:02.826Z,4.30
2023-05-05T19:18:29.465Z,4.13
2023-05-05T19:20:56.034Z,4.00
2023-05-05T19:23:22.675Z,4.63
2023-05-05T19:25:52.830Z,4.30
2023-05-05T19:28:19.727Z,4.20
2023-05-05T19:30:48.521Z,4.55
2023-05-05T19:33:16.020Z,3.83
2023-05-05T19:35:43.266Z,4.30
2023-05-05T19:38:10.350Z,4.57
2023-05-05T19:40:40.348Z,4.00
2023-05-05T19:43:07.500Z,4.25
2023-05-05T19:45:34.702Z,3.97
2023-05-05T19:48:01.777Z,4.20
2023-05-05T19:50:30.222Z,3.97
2023-05-05T19:52:57.221Z,4.23
2023-05-05T19:55:24.388Z,4.00
2023-05-05T19:57:51.069Z,4.40
2023-05-05T20:00:19.505Z,4.67
2023-05-05T20:02:46.464Z,4.23
2023-05-05T20:05:14.847Z,4.13
2023-05-05T20:07:44.656Z,3.77
2023-05-05T20:10:13.118Z,4.10
2023-05-05T20:12:42.255Z,3.90
2023-05-05T20:15:10.330Z,3.80
2023-05-05T20:17:36.921Z,4.10
2023-05-05T20:20:03.827Z,3.93
2023-05-05T20:22:30.942Z,3.70
2023-05-05T20:24:58.141Z,3.80
2023-05-05T20:27:26.019Z,3.80
2023-05-05T20:29:53.965Z,3.80
2023-05-05T20:32:20.624Z,4.13
2023-05-05T20:34:48.055Z,4.00
2023-05-05T20:37:14.799Z,3.57
2023-05-05T20:39:43.623Z,4.20
2023-05-05T20:42:10.831Z,3.70
2023-05-05T20:44:37.817Z,3.53
2023-05-05T20:47:04.796Z,3.83
2023-05-05T20:49:31.681Z,4.10
2023-05-05T20:51:58.695Z,4.17
2023-05-05T20:54:25.246Z,4.40
2023-05-05T20:56:53.029Z,4.03
2023-05-05T20:59:19.572Z,3.83
2023-05-05T21:01:46.209Z,3.80
2023-05-05T21:04:12.786Z,4.07
2023-05-05T21:06:39.345Z,4.20
2023-05-05T21:09:06.600Z,4.20
2023-05-05T21:11:33.245Z,3.70
2023-05-05T21:13:59.842Z,3.70
2023-05-05T21:16:26.582Z,3.90
2023-05-05T21:18:53.181Z,3.93
2023-05-05T21:21:19.915Z,3.73
2023-05-05T21:23:47.577Z,4.20
2023-05-05T21:26:14.155Z,4.03
2023-05-05T21:28:41.302Z,4.00
2023-05-05T21:31:21.240Z,4.50
2023-05-05T21:33:48.661Z,4.30
2023-05-05T21:36:17.430Z,3.80
2023-05-05T21:38:44.024Z,4.10
2023-05-05T21:41:10.676Z,3.80
2023-05-05T21:43:37.261Z,3.73
2023-05-05T21:46:05.246Z,4.37
2023-05-05T21:48:32.485Z,4.17
2023-05-05T21:50:59.068Z,3.90
2023-05-05T21:53:25.692Z,3.80
2023-05-05T21:55:52.266Z,4.00
2023-05-05T21:58:18.805Z,4.10
2023-05-05T22:00:49.351Z,3.80
2023-05-05T22:03:16.238Z,4.77
2023-05-05T22:05:42.891Z,3.90
2023-05-05T22:08:09.482Z,3.97
2023-05-05T22:10:36.032Z,3.63
2023-05-05T22:13:02.607Z,3.77
2023-05-05T22:15:35.727Z,3.40
2023-05-05T22:18:09.722Z,4.60
2023-05-05T22:20:38.697Z,4.00
2023-05-05T22:23:05.578Z,4.07
2023-05-05T22:25:32.226Z,3.70
2023-05-05T22:27:58.825Z,3.40
2023-05-05T22:30:25.644Z,3.93
2023-05-05T22:32:52.285Z,3.87
2023-05-05T22:35:19.386Z,4.00
2023-05-05T22:37:46.227Z,3.70
2023-05-05T22:40:13.538Z,3.97
2023-05-05T22:42:40.570Z,4.20
2023-05-05T22:45:08.538Z,4.07
2023-05-05T22:47:35.754Z,4.33
2023-05-05T22:50:02.625Z,4.20
2023-05-05T22:52:29.260Z,3.70
2023-05-05T22:54:56.355Z,4.10
2023-05-05T22:57:22.898Z,3.63
2023-05-05T22:59:49.940Z,4.13
2023-05-05T23:02:16.507Z,3.90
2023-05-05T23:04:44.859Z,4.23
2023-05-05T23:07:12.516Z,4.03
2023-05-05T23:09:39.176Z,3.97
2023-05-05T23:12:06.031Z,4.30
2023-05-05T23:14:32.727Z,3.93
2023-05-05T23:16:59.401Z,3.90
2023-05-05T23:19:26.303Z,4.00
2023-05-05T23:21:53.837Z,3.87
2023-05-05T23:24:21.457Z,4.23
2023-05-05T23:26:48.076Z,4.17
2023-05-05T23:29:14.675Z,4.23
2023-05-05T23:31:41.261Z,3.57
2023-05-05T23:34:07.846Z,4.67
2023-05-05T23:36:34.401Z,4.30
2023-05-05T23:39:01.039Z,4.60
2023-05-05T23:41:27.606Z,4.30
2023-05-05T23:43:54.175Z,4.30
2023-05-05T23:46:20.777Z,4.27
2023-05-05T23:48:47.383Z,4.90
2023-05-05T23:51:13.970Z,4.00
2023-05-05T23:53:40.588Z,4.03
2023-05-05T23:56:07.609Z,4.80
2023-05-05T23:58:34.415Z,4.27
